Sábado, 30 de Agosto del 2014

portal contactenos mapa del sitio buscar Revisar Correo Corporativo

|Reporte METAR por Reginal » ||Reporte TAF por Reginal » ||Reporte METAR, TAF y SIN覲TICO »

Reporte METAR por Regional

|| La Paz || Santa Cruz || Cochabamba || Beni - Pando ||

Informe METAR emitido cada hora.

Regional La Paz

ESTACIÓN

AEROPUERTO

HORA UTC

DESCRIPCIÓN

SLRY

Reyes

14-18S|67-21W

22:00

COR SLRY 292200Z 32003KT 8000 FEW020 31/21 Q1011 A2988 FU HR57 RWY OPR 1 000M=

SLRQ

Rurrenabaque

14-25S|67-29W

22:00

SLRQ 292200Z 00000KT 9999 FEW020 31/24 Q1010 A2983 CI HR69= 11/01 Q1033 A3051 654.6 CB/SE/S/SW/NW VIRGA/N/NW/NW HR51=

SLAP

Apolo

14-44S|68-24W

-

Mensaje no Recibido

SLSB

San Borja

14-51S|66-44W

23:00

SLSB 292300Z 00000KT 8000 NSC 28/22 Q1011 A2987 FU HR71 RWY NML=

SLLP

Internaci贸nal El Alto

16-08S|68-10W

05:00

SLLP 300500Z 16006KT 150V210 9999 FEW005 SCT013 FEW017CB BKN070 04/02 Q1039 A3068 628.6 CB/LT/S CI HR84 NOSIG=

SLCN

Chara帽a

17-35S|69-25W

-

Mensaje no Recibido

SLOR

Oruro

17-57S|67-04W

23:00

SLOR 292300Z 34015KT 9999 FEW017 FEW020CB SCT070 BKN200 09/M00 Q1035 A3058 656.3 CB/SE/S/SW/NW HR51=

SLUY

Uyuni

20-27S|62-52W

21:00

SLUY 292100Z 33015KT 9999 SCT020 SCT200 16/M08 Q1031 A3045 656.3 AS HR18=

Regional Cochabamba

ESTACIÓN

AEROPUERTO

HORA UTC

DESCRIPCIÓN

SLCB

Cochabamba

17-25S|66-10W

05:00

SLCB 300500Z 00000KT 9999 FEW027 12/05 Q1026 A3032 752.6 HR63 FU AC NOSIG=

SLSU

Sucre

19-00S|65-17W

23:00

SLSU 292300Z 01006KT 9999 FEW020 FEW033CB SCT200 16/04 Q1026 A3032 HR46 CB NW=

SLPO

Potos铆

19-32S|65-43W

21:00

SLPO 292100Z 06010KT 9999 SCT020 BKN200 12/03 Q1033 A3050 HR56=

SLAG

Monteagudo

19-49S|63-58W

21:00

SLAG 292100Z 09005KT 9999 NSC 29/16 Q1015 A2997 HR45 FU RWY CLSD=

SLVM

Villamontes

21-15S|63-24W

21:00

SLVM 292100Z 00000KT 5000 FU NSC 29/15 Q1009 A2980 HR43 CI=

SLTJ

Tarija

21-33S|64-42W

01:00

SLTJ 300100Z 15006KT 9999 NSC 16/09 Q1019 A3011 HR61 FU=

SLYA

Yacuiba

21-57S|63-39W

23:00

SLYA 292300Z 00000KT 9999 NSC 22/13 Q1011 A2988 HR61 FU=

SLBJ

Bermejo

22-46S|64-18W

21:00

SLBJ 292100Z 18010KT 8000 NSC 29/17 Q1006 A2971 HR51 CI FU=

Regional Santa Cruz

ESTACIÓN

AEROPUERTO

HORA UTC

DESCRIPCIÓN

SLAS

Ascenci贸n de Guarayos

15-55S|63-09W

23:00

SLAS 292300Z 00000KT 6000 NSC 28/21 Q1012 A2990 HR64 FU CI RWY NML=

SLCP

Concepci贸n

16-08S|62-01W

22:00

SLCP 292200Z 00000KT 5000 FU NSC 30/21 Q1014 A2994 HR61 RWY NML =

SLJV

San Javier

16-16S|62-28W

22:00

SLJV 292200Z 00000KT 9999 NSC 30/20 Q1012 A2988 HR59 FU RWY NML =

SLTI

San Mat铆as

16-20S|58-24W

22:00

SLTI 292200Z 00000KT 8000 NSC 29/24 Q1017 A3003 HR72 FU RWY NML =

SLSI

San Ignacio de Velasco

16-23S|60-57W

23:00

SLSI 292300Z 00000KT 9999 NSC 28/22 Q1013 A2991 HR69 RWY NML=

SLVR

Internaci贸nal Viru Viru

17-38S|63-08W

05:00

SLVR 300500Z 32006KT 8000 NSC 22/19 Q1013 A2993 HR85 FU CI NOSIG=

SLET

El Trompillo

17-48S|63-10W

23:00

SLET 292300Z 32010KT 9999 FEW017 BKN200 27/19 Q1011 A29.86 HR61 NOSIG=

SLJE

San Jos茅 de Chiquitos

17-49S|60-44W

22:00

SLJE 292200Z 36004KT 5000 FEW017 31/18 Q1013 A2991 HR44 RWY NML =

SLRB

Robor茅

18-19S|59-45W

23:00

SLRB 292300Z 36004KT 9999 NSC 28/22 Q1014 A2994 HR71 RWY NML=

SLVG

Valle Grande

18-28S|64-05W

21:00

SLVG 292100Z 35013KT 8000 FEW027 BKN200 21/12 Q1022 A3018 HR48 FU RWY NML=

SLPS

Puerto Su谩rez

18-58S|57-49W

23:00

SLPS 292300Z 00000KT 8000 NSC 26/20 Q1012 A2989 HR71 FU=

SLCA

Camiri

20-00S|63-31W

23:00

SLCA 292300Z 09005KT 8000 BKN033 27/17 Q1013 A2991 HR54 FU RWY NML=

Regional Beni

ESTACIÓN

AEROPUERTO

HORA UTC

DESCRIPCIÓN

SLGM

Guayaramer铆n

10-49S|65-20W

23:00

SLGM 292300Z 00000KT 6000 SCT017 FEW020CB BKN200 28/21 Q1012 A2991 HR68 FU CB W=

SLRI

Riberalta

11-00S|66-04W

23:00

SLRI 292300Z 00000KT 3000 FU FEW017 FEW020CB BKN200 30/22 Q1012 A2989 HR61 CB NE/SE=

SLCO

Cobija

11-02S|68-47W

23:00

SLCO 292300Z 00000KT 5000 FU FEW030 FEW033CB BKN200 30/24 Q1011 A2986 983.7 HR70 CB W=

SLJO

San Joaquin

13-03S|64-39W

22:00

SLJO 292200Z 00000KT 8000 NSC 32/21 Q1011 A2988 HR52 FU RWY NML=

SLMG

San Magdalena

13-15S|64-03W

23:00

SLMG 292300Z 00000KT 8000 FEW020 BKN200 31/22 Q1011 A2988 HR59 FU RWY NML=

SLRA

San Ram贸n

13-15S|64-36W

22:00

SLRA 292200Z 32003KT 8000 FEW017 SCT200 33/20 Q1012 A2984 HR47 FU RWY NML=

SLBU

Baures

13-39S|63-42W

22:00

SLBU 292200Z 35006KT 7000 BKN017 29/20 Q1012 A2989 HR57 FU RWY NML=

SLSA

Santa Ana de Yacuma

13-45S|65-26W

23:00

SLSA 292300Z 32004KT 7000 NSC 30/20 Q1011 A2986 HR57 FU=

SLSR

Santa Rosa

14-04S|66-47W

22:00

SLSR 292200Z 35004KT 9999 NSC 33/24 Q1008 A2977 HR60 CI RWY NML=

SLTR

Trinidad

14-49S|64-54W

10:00

SLTR 301000Z

SLSM

San Ignacio de Moxos

14-57S|65-38W

22:00

SLSM 292200Z 00000KT 8000 NSC 30/22 Q1009 A2980 HR63 FU RWY NML=